createdAt,value
2023-03-22T05:03:19.245Z,100805.96
2023-03-22T05:05:57.678Z,100804.13
2023-03-22T05:08:30.953Z,100806.20
2023-03-22T05:11:06.276Z,100804.48
2023-03-22T05:13:35.758Z,100802.16
2023-03-22T05:16:10.260Z,100802.39
2023-03-22T05:18:59.349Z,100806.65
2023-03-22T05:21:29.241Z,100801.38
2023-03-22T05:35:27.282Z,100810.84
2023-03-22T05:46:39.281Z,100814.39
2023-03-22T05:49:48.559Z,100820.10
2023-03-22T05:52:23.098Z,100824.22
2023-03-22T05:55:12.894Z,100827.67
2023-03-22T05:57:46.681Z,100832.79
2023-03-22T06:00:18.356Z,100831.62
2023-03-22T06:03:15.174Z,100834.98
2023-03-22T06:05:46.882Z,100837.36
2023-03-22T06:08:17.670Z,100839.71
2023-03-22T06:10:49.606Z,100841.95
2023-03-22T06:13:24.554Z,100844.77
2023-03-22T06:15:54.823Z,100844.24
2023-03-22T06:18:31.178Z,100845.52
2023-03-22T06:21:07.491Z,100851.07
2023-03-22T06:23:37.016Z,100851.54
2023-03-22T06:26:11.763Z,100856.58
2023-03-22T06:28:41.615Z,100857.77
2023-03-22T06:31:11.200Z,100857.42
2023-03-22T06:33:46.651Z,100855.77
2023-03-22T06:36:23.887Z,100857.60
2023-03-22T06:39:08.803Z,100853.07
2023-03-22T06:41:41.006Z,100854.48
2023-03-22T06:44:38.573Z,100858.57
2023-03-22T06:47:16.588Z,100859.18
2023-03-22T06:49:55.694Z,100861.54
2023-03-22T06:52:30.417Z,100861.13
2023-03-22T06:54:59.388Z,100858.23
2023-03-22T06:57:33.631Z,100862.40
2023-03-22T07:00:05.338Z,100864.86
2023-03-22T07:02:58.647Z,100865.06
2023-03-22T07:05:46.721Z,100863.95
2023-03-22T07:08:16.437Z,100866.15
2023-03-22T07:11:07.049Z,100870.59
2023-03-22T07:13:54.573Z,100875.07
2023-03-22T07:16:29.250Z,100880.27
2023-03-22T07:19:23.962Z,100877.05
2023-03-22T07:22:13.671Z,100883.17
2023-03-22T07:25:15.156Z,100881.83
2023-03-22T07:27:51.373Z,100881.11
2023-03-22T07:30:38.971Z,100875.16
2023-03-22T07:33:12.040Z,100877.41
2023-03-22T07:35:52.597Z,100876.64
2023-03-22T07:38:22.869Z,100876.02
2023-03-22T07:40:56.216Z,100874.08
2023-03-22T07:56:38.124Z,100876.17
2023-03-22T08:00:03.242Z,100876.39
2023-03-22T08:12:14.664Z,100887.78
2023-03-22T08:14:51.461Z,100888.36
2023-03-22T08:17:24.733Z,100887.33
2023-03-22T08:19:57.005Z,100892.14
2023-03-22T08:22:40.017Z,100892.40
2023-03-22T08:25:21.887Z,100891.13
2023-03-22T08:27:51.346Z,100887.06
2023-03-22T08:30:23.756Z,100886.05
2023-03-22T08:32:55.775Z,100882.30
2023-03-22T08:35:24.765Z,100886.33
2023-03-22T08:37:55.053Z,100879.17
2023-03-22T08:40:27.460Z,100879.48
2023-03-22T08:43:01.631Z,100877.01
2023-03-22T08:45:31.202Z,100876.11
2023-03-22T08:48:07.011Z,100876.91
2023-03-22T08:50:48.038Z,100880.75
2023-03-22T08:53:26.920Z,100881.74
2023-03-22T08:56:05.667Z,100886.26
2023-03-22T08:58:57.361Z,100889.55
2023-03-22T09:01:55.568Z,100884.10
2023-03-22T09:04:24.766Z,100881.13
2023-03-22T09:06:53.757Z,100880.12
2023-03-22T09:09:24.606Z,100881.10
2023-03-22T09:11:54.176Z,100884.00
2023-03-22T09:14:23.321Z,100883.66
2023-03-22T09:16:56.696Z,100884.75
2023-03-22T09:19:26.432Z,100886.54
2023-03-22T09:21:55.886Z,100886.80
2023-03-22T09:24:52.198Z,100887.89
2023-03-22T09:27:21.855Z,100887.71
2023-03-22T09:29:52.557Z,100883.77
2023-03-22T09:32:21.462Z,100883.06
2023-03-22T09:34:56.591Z,100892.07
2023-03-22T09:37:32.814Z,100891.42
2023-03-22T09:40:02.467Z,100888.37
2023-03-22T09:42:34.419Z,100890.04
2023-03-22T09:45:10.704Z,100891.55
2023-03-22T09:47:45.034Z,100887.13
2023-03-22T09:50:25.134Z,100889.98
2023-03-22T09:52:54.071Z,100889.50
2023-03-22T09:55:42.063Z,100892.98
2023-03-22T09:58:14.155Z,100890.57
2023-03-22T10:01:24.853Z,100884.48
2023-03-22T10:04:02.353Z,100882.16
2023-03-22T10:06:31.274Z,100883.87
2023-03-22T10:09:24.476Z,100878.98
2023-03-22T10:12:13.809Z,100870.36
2023-03-22T10:15:03.740Z,100872.44
2023-03-22T10:17:32.822Z,100865.64
2023-03-22T10:20:30.198Z,100866.10
2023-03-22T10:22:59.594Z,100864.67
2023-03-22T10:25:33.947Z,100864.64
2023-03-22T10:28:02.840Z,100857.41
2023-03-22T10:30:38.569Z,100856.95
2023-03-22T10:33:27.920Z,100852.26
2023-03-22T10:35:56.654Z,100851.70
2023-03-22T10:38:26.838Z,100852.38
2023-03-22T10:40:59.749Z,100851.18
2023-03-22T10:43:39.974Z,100849.40
2023-03-22T10:46:13.976Z,100846.11
2023-03-22T10:48:45.872Z,100845.91
2023-03-22T10:51:40.408Z,100842.94
2023-03-22T10:54:13.123Z,100843.97
2023-03-22T10:56:41.921Z,100841.76
2023-03-22T10:59:51.924Z,100842.73
2023-03-22T11:02:23.129Z,100844.14
2023-03-22T11:04:53.480Z,100843.00
2023-03-22T11:07:35.035Z,100839.37
2023-03-22T11:10:10.840Z,100838.89
2023-03-22T11:12:45.043Z,100833.83
2023-03-22T11:15:32.488Z,100833.44
2023-03-22T11:18:07.367Z,100828.88
2023-03-22T11:20:36.328Z,100822.33
2023-03-22T11:23:06.215Z,100825.05
2023-03-22T11:25:36.626Z,100820.69
2023-03-22T11:28:05.690Z,100820.84
2023-03-22T11:30:34.959Z,100817.00
2023-03-22T11:33:20.165Z,100823.00
2023-03-22T11:35:55.616Z,100819.68
2023-03-22T11:38:41.177Z,100816.73
2023-03-22T11:41:39.530Z,100813.05
2023-03-22T11:44:13.747Z,100814.80
2023-03-22T11:46:50.860Z,100813.89
2023-03-22T11:49:19.437Z,100815.57
2023-03-22T11:51:54.855Z,100811.36
2023-03-22T11:54:28.000Z,100807.98
2023-03-22T11:56:59.041Z,100803.91
2023-03-22T11:59:39.894Z,100802.48
2023-03-22T12:02:31.943Z,100797.54
2023-03-22T12:05:23.609Z,100798.23
2023-03-22T12:08:18.216Z,100797.44
2023-03-22T12:11:07.601Z,100793.40
2023-03-22T12:13:44.389Z,100786.20
2023-03-22T12:16:14.773Z,100787.55
2023-03-22T12:18:47.964Z,100787.38
2023-03-22T12:21:18.491Z,100787.72
2023-03-22T12:23:47.276Z,100786.54
2023-03-22T12:26:20.265Z,100781.55
2023-03-22T12:29:09.929Z,100779.20
2023-03-22T12:32:08.863Z,100783.44
2023-03-22T12:34:48.130Z,100780.26
2023-03-22T12:37:29.670Z,100786.94
2023-03-22T12:40:01.539Z,100786.88
2023-03-22T12:42:50.363Z,100783.66
2023-03-22T12:45:31.575Z,100784.48
2023-03-22T12:48:12.866Z,100790.27
2023-03-22T12:50:50.015Z,100789.38
2023-03-22T12:53:19.422Z,100790.94
2023-03-22T12:55:48.114Z,100789.80
2023-03-22T12:58:22.707Z,100791.66
2023-03-22T13:01:00.493Z,100794.16
2023-03-22T13:03:52.364Z,100793.09
2023-03-22T13:06:34.506Z,100788.64
2023-03-22T13:09:10.242Z,100793.79
2023-03-22T13:11:47.487Z,100789.06
2023-03-22T13:14:52.530Z,100786.70
2023-03-22T13:17:22.472Z,100783.43
2023-03-22T13:20:15.897Z,100785.73
2023-03-22T13:22:47.900Z,100785.40
2023-03-22T13:25:19.548Z,100783.94
2023-03-22T13:27:59.431Z,100788.55
2023-03-22T13:30:31.754Z,100787.58
2023-03-22T13:33:08.911Z,100788.70
2023-03-22T13:35:45.428Z,100791.13
2023-03-22T13:38:26.928Z,100791.44
2023-03-22T13:41:23.003Z,100789.96
2023-03-22T13:43:59.043Z,100793.00
2023-03-22T13:46:38.409Z,100790.66
2023-03-22T13:49:20.195Z,100796.59
2023-03-22T13:51:48.953Z,100794.97
2023-03-22T13:54:21.220Z,100791.16
2023-03-22T13:56:53.364Z,100791.49
2023-03-22T13:59:30.079Z,100787.95
2023-03-22T14:02:15.881Z,100784.74
2023-03-22T14:04:50.768Z,100781.92
2023-03-22T14:07:28.569Z,100774.71
2023-03-22T14:10:00.606Z,100779.29
2023-03-22T14:13:11.814Z,100781.16
2023-03-22T14:15:43.331Z,100781.25
2023-03-22T14:18:26.581Z,100780.09
2023-03-22T14:21:00.191Z,100784.20
